createdAt,value
2023-01-15T00:02:17.381Z,6.20
2023-01-15T00:04:44.749Z,6.23
2023-01-15T00:07:11.993Z,3.50
2023-01-15T00:09:39.199Z,4.40
2023-01-15T00:12:06.439Z,4.50
2023-01-15T00:14:33.658Z,6.50
2023-01-15T00:17:00.815Z,5.03
2023-01-15T00:19:27.963Z,4.03
2023-01-15T00:21:55.229Z,4.33
2023-01-15T00:24:40.813Z,3.10
2023-01-15T00:27:29.563Z,2.43
2023-01-15T00:29:56.820Z,2.90
2023-01-15T00:32:27.143Z,2.20
2023-01-15T00:34:54.357Z,5.43
2023-01-15T00:37:21.766Z,6.20
2023-01-15T00:39:49.040Z,3.87
2023-01-15T00:42:17.638Z,3.37
2023-01-15T00:44:44.921Z,3.10
2023-01-15T00:47:15.086Z,2.20
2023-01-15T00:49:43.164Z,2.20
2023-01-15T00:52:11.617Z,2.90
2023-01-15T00:54:38.790Z,6.10
2023-01-15T00:57:05.994Z,4.30
2023-01-15T00:59:33.230Z,4.67
2023-01-15T01:02:00.504Z,4.43
2023-01-15T01:04:27.805Z,3.13
2023-01-15T01:06:55.236Z,6.50
2023-01-15T01:09:22.516Z,2.80
2023-01-15T01:11:50.499Z,3.40
2023-01-15T01:14:17.746Z,2.77
2023-01-15T01:16:45.370Z,6.43
2023-01-15T01:19:18.787Z,3.57
2023-01-15T01:21:47.843Z,4.20
2023-01-15T01:24:24.798Z,3.17
2023-01-15T01:26:54.324Z,2.30
2023-01-15T01:29:22.816Z,2.30
2023-01-15T01:31:51.312Z,3.30
2023-01-15T01:34:18.654Z,2.07
2023-01-15T01:36:45.963Z,2.07
2023-01-15T01:39:17.626Z,3.90
2023-01-15T01:41:46.721Z,2.63
2023-01-15T01:44:32.468Z,3.23
2023-01-15T01:47:01.648Z,2.40
2023-01-15T01:49:29.329Z,3.40
2023-01-15T01:52:03.981Z,1.97
2023-01-15T01:54:34.479Z,2.67
2023-01-15T01:57:02.673Z,2.00
2023-01-15T01:59:30.087Z,2.87
2023-01-15T02:01:57.433Z,3.90
2023-01-15T02:04:26.550Z,2.33
2023-01-15T02:06:54.633Z,1.90
2023-01-15T02:09:21.823Z,1.93
2023-01-15T02:11:55.790Z,2.27
2023-01-15T02:15:07.370Z,2.27
2023-01-15T02:17:44.371Z,2.67
2023-01-15T02:20:36.660Z,1.90
2023-01-15T02:23:28.280Z,1.93
2023-01-15T02:26:22.365Z,2.20
2023-01-15T02:28:54.034Z,1.80
2023-01-15T02:31:43.245Z,2.30
2023-01-15T02:34:34.060Z,1.97
2023-01-15T02:37:06.830Z,2.63
2023-01-15T02:39:39.050Z,1.87
2023-01-15T02:42:10.047Z,2.57
2023-01-15T02:44:41.460Z,1.50
2023-01-15T02:47:11.287Z,1.80
2023-01-15T02:49:40.957Z,2.07
2023-01-15T02:52:18.272Z,1.53
2023-01-15T02:54:50.134Z,4.77
2023-01-15T02:57:18.755Z,1.90
2023-01-15T02:59:48.864Z,2.43
2023-01-15T03:02:27.338Z,2.07
2023-01-15T03:05:02.068Z,1.70
2023-01-15T03:07:55.819Z,1.60
2023-01-15T03:10:32.035Z,2.63
2023-01-15T03:13:02.670Z,1.90
2023-01-15T03:16:20.308Z,2.00
2023-01-15T03:19:20.539Z,3.57
2023-01-15T03:21:57.259Z,1.83
2023-01-15T03:24:55.718Z,1.97
2023-01-15T03:27:24.037Z,2.40
2023-01-15T03:29:59.129Z,2.00
2023-01-15T03:32:26.501Z,1.67
2023-01-15T03:34:56.014Z,1.80
2023-01-15T03:37:25.720Z,1.83
2023-01-15T03:39:53.726Z,2.23
2023-01-15T03:42:33.260Z,2.87
2023-01-15T03:45:03.340Z,2.57
2023-01-15T03:47:30.620Z,2.23
2023-01-15T03:50:14.594Z,2.60
2023-01-15T03:52:48.425Z,2.10
2023-01-15T03:55:26.096Z,2.03
2023-01-15T03:58:02.499Z,1.70
2023-01-15T04:00:36.786Z,1.90
2023-01-15T04:03:07.238Z,1.93
2023-01-15T04:05:37.041Z,1.50
2023-01-15T04:08:05.741Z,2.37
2023-01-15T04:10:33.005Z,1.77
2023-01-15T04:13:00.269Z,1.77
2023-01-15T04:15:27.559Z,2.00
2023-01-15T04:17:54.752Z,4.43
2023-01-15T04:20:21.932Z,1.70
2023-01-15T04:22:49.109Z,1.83
2023-01-15T04:25:16.316Z,1.70
2023-01-15T04:27:43.567Z,1.70
2023-01-15T04:30:11.707Z,1.97
2023-01-15T04:32:38.924Z,1.53
2023-01-15T04:35:06.437Z,1.07
2023-01-15T04:37:34.111Z,1.43
2023-01-15T04:40:01.248Z,1.63
2023-01-15T04:42:46.777Z,2.57
2023-01-15T04:45:13.993Z,1.20
2023-01-15T04:47:41.154Z,1.40
2023-01-15T04:50:09.156Z,1.57
2023-01-15T04:52:36.391Z,3.83
2023-01-15T04:55:04.701Z,1.17
2023-01-15T04:57:31.842Z,1.60
2023-01-15T04:59:59.110Z,1.50
2023-01-15T05:02:26.364Z,1.17
2023-01-15T05:04:53.621Z,1.87
2023-01-15T05:07:20.890Z,1.23
2023-01-15T05:09:51.665Z,1.17
2023-01-15T05:12:18.814Z,1.20
2023-01-15T05:14:45.999Z,1.77
2023-01-15T05:17:13.199Z,1.23
2023-01-15T05:19:40.469Z,0.80
2023-01-15T05:22:07.777Z,2.07
2023-01-15T05:24:34.925Z,1.10
2023-01-15T05:27:02.809Z,1.40
2023-01-15T05:29:29.995Z,1.80
2023-01-15T05:31:57.317Z,1.30
2023-01-15T05:34:24.473Z,1.23
2023-01-15T05:36:51.628Z,1.73
2023-01-15T05:39:18.836Z,1.27
2023-01-15T05:41:52.753Z,2.60
2023-01-15T05:44:27.488Z,1.63
2023-01-15T05:47:06.070Z,1.50
2023-01-15T05:49:34.152Z,1.63
2023-01-15T05:52:02.392Z,1.03
2023-01-15T05:54:31.961Z,1.63
2023-01-15T05:56:59.245Z,1.57
2023-01-15T05:59:28.008Z,1.53
2023-01-15T06:01:56.354Z,1.77
2023-01-15T06:04:25.229Z,4.27
2023-01-15T06:06:55.827Z,1.50
2023-01-15T06:09:23.590Z,3.40
2023-01-15T06:11:51.514Z,3.13
2023-01-15T06:14:18.826Z,1.40
2023-01-15T06:16:46.447Z,4.30
2023-01-15T06:19:14.190Z,3.30
2023-01-15T06:21:41.753Z,2.33
2023-01-15T06:24:09.552Z,3.87
2023-01-15T06:26:38.702Z,2.93
2023-01-15T06:29:05.933Z,2.63
2023-01-15T06:31:33.193Z,2.83
2023-01-15T06:34:00.676Z,2.53
2023-01-15T06:36:29.266Z,9.70
2023-01-15T06:38:57.001Z,2.97
2023-01-15T06:41:44.835Z,9.47
2023-01-15T06:44:37.393Z,4.10
2023-01-15T06:47:24.081Z,3.83
2023-01-15T06:49:56.584Z,2.70
2023-01-15T06:52:29.462Z,2.20
2023-01-15T06:54:57.012Z,3.10
2023-01-15T06:57:24.230Z,1.40
2023-01-15T06:59:52.020Z,1.73
2023-01-15T07:02:19.900Z,3.03
2023-01-15T07:04:48.126Z,2.10
2023-01-15T07:07:17.581Z,2.00
2023-01-15T07:09:45.492Z,4.37
2023-01-15T07:12:13.887Z,2.20
2023-01-15T07:14:41.189Z,2.22
2023-01-15T07:17:08.478Z,2.40
2023-01-15T07:19:35.840Z,4.80
2023-01-15T07:22:03.313Z,6.50
2023-01-15T07:24:30.746Z,8.57
2023-01-15T07:26:58.298Z,2.83
2023-01-15T07:29:25.604Z,3.63
2023-01-15T07:31:52.962Z,2.40
2023-01-15T07:34:20.819Z,3.83
2023-01-15T07:36:48.229Z,5.80
2023-01-15T07:39:15.567Z,6.23
2023-01-15T07:42:01.584Z,2.70
2023-01-15T07:44:47.275Z,3.03
2023-01-15T07:47:37.844Z,2.20
2023-01-15T07:50:09.379Z,4.50
2023-01-15T07:52:36.630Z,2.30
2023-01-15T07:55:04.512Z,2.40
2023-01-15T07:57:31.998Z,2.40
2023-01-15T07:59:59.340Z,2.37
2023-01-15T08:02:27.414Z,2.23
2023-01-15T08:04:54.838Z,1.90
2023-01-15T08:07:22.035Z,2.20
2023-01-15T08:09:49.245Z,3.23
2023-01-15T08:12:35.200Z,2.47
2023-01-15T08:15:14.714Z,2.60
2023-01-15T08:17:47.277Z,3.20
2023-01-15T08:20:20.247Z,2.73
2023-01-15T08:22:47.739Z,4.97
2023-01-15T08:25:21.291Z,7.60
2023-01-15T08:27:48.816Z,8.87
2023-01-15T08:30:19.060Z,8.40
2023-01-15T08:32:46.251Z,7.90
2023-01-15T08:35:13.824Z,8.07
2023-01-15T08:37:42.648Z,6.53
2023-01-15T08:40:11.599Z,12.23
2023-01-15T08:42:39.235Z,7.70
2023-01-15T08:45:07.461Z,12.23
2023-01-15T08:47:34.702Z,13.20
2023-01-15T08:50:02.031Z,7.40
2023-01-15T08:52:29.219Z,10.53
2023-01-15T08:54:56.408Z,5.83
2023-01-15T08:57:23.549Z,4.30
2023-01-15T08:59:50.725Z,5.47
2023-01-15T09:02:18.418Z,4.50
2023-01-15T09:04:45.902Z,8.77
2023-01-15T09:07:13.328Z,6.43
2023-01-15T09:09:40.641Z,3.70
2023-01-15T09:12:08.988Z,4.37
2023-01-15T09:14:58.762Z,3.93
2023-01-15T09:17:23.272Z,6.40
2023-01-15T09:19:50.673Z,3.13
2023-01-15T09:22:17.872Z,5.50
2023-01-15T09:24:45.053Z,1.60
2023-01-15T09:27:12.902Z,2.70
2023-01-15T09:29:40.244Z,1.30
2023-01-15T09:32:09.872Z,0.70
2023-01-15T09:34:37.490Z,0.70
2023-01-15T09:37:04.699Z,0.50
2023-01-15T09:39:31.975Z,2.30
2023-01-15T09:42:20.040Z,0.60
2023-01-15T09:45:07.883Z,1.30
2023-01-15T09:47:55.829Z,2.10
2023-01-15T09:50:47.659Z,2.50
2023-01-15T09:53:41.651Z,6.70
2023-01-15T09:56:19.675Z,5.17
2023-01-15T09:58:47.397Z,3.70
2023-01-15T10:01:19.341Z,0.80
2023-01-15T10:03:57.310Z,1.17
2023-01-15T10:06:41.786Z,0.90
2023-01-15T10:09:20.651Z,3.93
2023-01-15T10:12:20.844Z,4.23
2023-01-15T10:14:54.468Z,1.53
2023-01-15T10:17:27.521Z,0.70
2023-01-15T10:19:55.995Z,1.90
2023-01-15T10:22:44.623Z,4.90
2023-01-15T10:25:26.182Z,5.00
2023-01-15T10:27:53.573Z,4.77
2023-01-15T10:30:40.306Z,5.20
2023-01-15T10:33:50.552Z,4.70
2023-01-15T10:36:22.889Z,4.40
2023-01-15T10:39:11.265Z,4.37
2023-01-15T10:41:56.456Z,3.93
2023-01-15T10:44:57.429Z,6.10
2023-01-15T10:47:32.846Z,8.87
2023-01-15T10:50:03.344Z,2.33
2023-01-15T10:52:35.453Z,1.13
2023-01-15T10:55:27.277Z,0.90
2023-01-15T10:58:10.216Z,1.27
2023-01-15T11:00:39.659Z,0.70
2023-01-15T11:03:19.590Z,0.80
2023-01-15T11:05:47.171Z,0.80
2023-01-15T11:11:43.863Z,0.83
2023-01-15T11:14:30.027Z,1.97
2023-01-15T11:17:09.294Z,1.33
2023-01-15T11:19:43.784Z,0.80
2023-01-15T11:22:19.121Z,0.70
2023-01-15T11:24:55.287Z,0.73
2023-01-15T11:27:30.076Z,0.80
2023-01-15T11:29:59.471Z,0.80
2023-01-15T11:32:37.902Z,0.80
2023-01-15T11:35:08.466Z,0.90
2023-01-15T11:37:35.610Z,0.90
2023-01-15T11:40:07.994Z,2.07
2023-01-15T11:43:03.689Z,1.33
2023-01-15T11:45:49.399Z,0.70
2023-01-15T11:48:40.438Z,0.90
2023-01-15T11:51:09.339Z,5.23
2023-01-15T11:53:47.894Z,2.17
2023-01-15T11:56:21.569Z,1.47
2023-01-15T11:58:55.184Z,1.10
2023-01-15T12:01:36.020Z,1.20
2023-01-15T12:04:22.785Z,1.43
2023-01-15T12:06:50.411Z,1.77
2023-01-15T12:09:29.554Z,1.27
2023-01-15T12:12:21.791Z,1.23
2023-01-15T12:15:16.008Z,1.30
2023-01-15T12:18:28.898Z,1.10
2023-01-15T12:21:15.298Z,1.40
2023-01-15T12:23:57.130Z,1.30
2023-01-15T12:26:29.824Z,0.80
2023-01-15T12:29:27.365Z,0.90
2023-01-15T12:32:05.459Z,1.63
2023-01-15T12:34:51.112Z,4.50
2023-01-15T12:37:24.826Z,1.47
2023-01-15T12:39:52.014Z,2.13
2023-01-15T12:42:42.124Z,1.10
2023-01-15T12:45:43.331Z,1.13
2023-01-15T12:48:13.761Z,1.80
2023-01-15T12:50:54.766Z,2.80
2023-01-15T12:53:52.813Z,0.93
2023-01-15T12:56:26.212Z,0.90
2023-01-15T12:59:10.529Z,1.20
2023-01-15T13:01:46.763Z,1.17
2023-01-15T13:04:17.664Z,1.03
2023-01-15T13:06:54.131Z,1.47
2023-01-15T13:09:34.496Z,1.43
2023-01-15T13:12:01.854Z,1.00
2023-01-15T13:14:30.261Z,1.30
2023-01-15T13:17:11.441Z,1.67
2023-01-15T13:19:54.051Z,1.43
2023-01-15T13:22:26.170Z,0.90
2023-01-15T13:25:01.839Z,0.97
2023-01-15T13:27:50.341Z,0.90
2023-01-15T13:30:24.348Z,1.57
2023-01-15T13:32:56.558Z,1.27
2023-01-15T13:35:23.751Z,3.27
2023-01-15T13:37:56.171Z,6.97
2023-01-15T13:40:30.367Z,2.03
2023-01-15T13:42:57.686Z,3.77
2023-01-15T13:45:48.209Z,2.00
2023-01-15T13:48:33.035Z,1.60
2023-01-15T13:51:02.803Z,3.37
2023-01-15T13:53:44.273Z,2.43
2023-01-15T13:56:15.279Z,1.60
2023-01-15T13:58:58.226Z,1.87
2023-01-15T14:01:30.416Z,1.40
2023-01-15T14:04:00.483Z,2.03
2023-01-15T14:06:46.931Z,1.10
2023-01-15T14:09:23.292Z,1.30
2023-01-15T14:12:31.722Z,1.53
2023-01-15T14:15:05.011Z,2.50
2023-01-15T14:18:09.871Z,1.70
2023-01-15T14:20:44.503Z,2.93
2023-01-15T14:23:52.915Z,2.13
2023-01-15T14:26:25.579Z,1.43
2023-01-15T14:29:06.560Z,2.60
2023-01-15T14:31:57.843Z,1.80
2023-01-15T14:34:28.817Z,6.90
2023-01-15T14:37:05.246Z,10.30
2023-01-15T14:40:18.305Z,4.03
2023-01-15T14:43:01.854Z,2.20
2023-01-15T14:45:36.400Z,2.03
2023-01-15T14:48:15.574Z,2.33
2023-01-15T14:50:44.159Z,2.23
2023-01-15T14:53:11.306Z,2.83
2023-01-15T14:56:14.246Z,2.07
2023-01-15T14:59:18.116Z,3.10
2023-01-15T15:02:33.288Z,7.73
2023-01-15T15:05:01.965Z,2.33
2023-01-15T15:07:36.531Z,3.53
2023-01-15T15:10:18.151Z,2.77
2023-01-15T15:13:22.648Z,3.03
2023-01-15T15:16:11.708Z,15.63
2023-01-15T15:18:47.824Z,3.63
2023-01-15T15:21:51.078Z,4.53
2023-01-15T15:24:32.587Z,4.10
2023-01-15T15:27:23.656Z,2.60
2023-01-15T15:29:51.150Z,3.73
2023-01-15T15:32:24.924Z,2.90
2023-01-15T15:34:53.690Z,3.07
2023-01-15T15:37:24.996Z,2.57
2023-01-15T15:39:54.362Z,1.80
2023-01-15T15:42:56.014Z,3.03
2023-01-15T15:45:44.770Z,1.90
2023-01-15T15:48:30.819Z,1.37
2023-01-15T15:50:59.047Z,1.60
2023-01-15T15:53:26.306Z,1.33
2023-01-15T15:55:56.316Z,1.60
2023-01-15T15:58:39.292Z,4.00
2023-01-15T16:01:11.651Z,6.00
2023-01-15T16:03:46.718Z,4.10
2023-01-15T16:06:21.081Z,10.13
2023-01-15T16:09:04.776Z,3.63
2023-01-15T16:11:33.492Z,4.07
2023-01-15T16:14:05.717Z,3.07
2023-01-15T16:16:33.352Z,2.97
2023-01-15T16:19:02.653Z,4.00
2023-01-15T16:21:39.441Z,4.17
2023-01-15T16:24:09.452Z,7.80
2023-01-15T16:26:49.759Z,8.80
2023-01-15T16:29:36.776Z,6.00
2023-01-15T16:32:12.647Z,6.17
2023-01-15T16:34:40.561Z,6.27
2023-01-15T16:37:27.144Z,6.03
2023-01-15T16:39:54.894Z,7.73
2023-01-15T16:42:40.105Z,7.40
2023-01-15T16:45:23.940Z,7.57
2023-01-15T16:48:14.781Z,13.30
2023-01-15T16:50:42.763Z,8.90
2023-01-15T16:53:28.493Z,4.77
2023-01-15T16:55:57.124Z,4.87
2023-01-15T16:58:43.710Z,4.03
2023-01-15T17:01:31.365Z,11.33
2023-01-15T17:03:58.938Z,6.30
2023-01-15T17:06:27.959Z,3.50
2023-01-15T17:08:56.730Z,5.90
2023-01-15T17:11:31.222Z,4.67
2023-01-15T17:14:11.954Z,4.47
2023-01-15T17:16:39.218Z,3.90
2023-01-15T17:19:07.938Z,2.20
2023-01-15T17:21:38.015Z,0.90
2023-01-15T17:24:11.845Z,1.00
2023-01-15T17:26:39.123Z,0.87
2023-01-15T17:29:06.357Z,2.40
2023-01-15T17:31:34.683Z,0.87
2023-01-15T17:34:03.611Z,0.87
2023-01-15T17:36:31.258Z,1.00
2023-01-15T17:38:58.641Z,1.37
2023-01-15T17:41:26.888Z,0.60
2023-01-15T17:43:54.091Z,0.67
2023-01-15T17:46:21.621Z,0.60
2023-01-15T17:48:48.796Z,1.00
2023-01-15T17:51:16.719Z,0.70
2023-01-15T17:53:43.890Z,0.90
2023-01-15T17:56:29.726Z,0.80
2023-01-15T17:59:15.313Z,1.40
2023-01-15T18:02:04.252Z,1.10
2023-01-15T18:05:06.176Z,0.80
2023-01-15T18:07:39.395Z,0.60
2023-01-15T18:10:11.628Z,1.03
2023-01-15T18:12:38.796Z,3.03
2023-01-15T18:15:06.596Z,1.17
2023-01-15T18:17:33.886Z,0.97
2023-01-15T18:20:01.053Z,0.73
2023-01-15T18:22:29.846Z,0.97
2023-01-15T18:24:57.251Z,0.87
2023-01-15T18:27:30.004Z,0.93
2023-01-15T18:29:58.774Z,0.50
2023-01-15T18:32:33.483Z,0.70
2023-01-15T18:35:00.745Z,0.80
2023-01-15T18:37:27.923Z,0.80
2023-01-15T18:39:55.080Z,0.93
2023-01-15T18:42:40.727Z,0.70
2023-01-15T18:45:27.917Z,0.60
2023-01-15T18:47:55.399Z,0.70
2023-01-15T18:50:22.642Z,0.50
2023-01-15T18:52:52.848Z,1.53
2023-01-15T18:55:22.996Z,2.20
2023-01-15T18:57:50.273Z,1.23
2023-01-15T19:00:18.719Z,0.50
2023-01-15T19:02:46.455Z,0.60
2023-01-15T19:05:15.407Z,0.60
2023-01-15T19:07:45.959Z,0.63
2023-01-15T19:10:14.675Z,0.60
2023-01-15T19:12:41.914Z,0.70
2023-01-15T19:15:34.935Z,0.60
2023-01-15T19:18:21.299Z,0.60
2023-01-15T19:20:48.916Z,1.00
2023-01-15T19:23:16.467Z,1.20
2023-01-15T19:25:51.069Z,0.70
2023-01-15T19:28:19.936Z,1.03
2023-01-15T19:31:07.186Z,0.80
2023-01-15T19:33:34.639Z,0.70
2023-01-15T19:36:01.957Z,0.60
2023-01-15T19:38:29.522Z,1.43
2023-01-15T19:41:16.838Z,0.60
2023-01-15T19:44:02.649Z,0.80
2023-01-15T19:46:49.039Z,0.70
2023-01-15T19:49:38.960Z,1.37
2023-01-15T19:52:24.960Z,0.67
2023-01-15T19:54:58.110Z,0.70
2023-01-15T19:57:25.471Z,0.73
2023-01-15T19:59:52.809Z,0.70
2023-01-15T20:02:20.041Z,0.60
2023-01-15T20:04:50.965Z,0.93
2023-01-15T20:07:18.123Z,0.87
2023-01-15T20:09:45.645Z,0.97
2023-01-15T20:12:48.535Z,1.87
2023-01-15T20:15:15.847Z,1.57
2023-01-15T20:17:43.225Z,1.30
2023-01-15T20:20:11.361Z,1.40
2023-01-15T20:22:39.108Z,0.70
2023-01-15T20:25:07.076Z,0.70
2023-01-15T20:27:37.529Z,0.80
2023-01-15T20:30:09.398Z,0.60
2023-01-15T20:32:38.526Z,0.50
2023-01-15T20:35:08.432Z,1.43
2023-01-15T20:37:35.699Z,0.57
2023-01-15T20:40:03.255Z,0.60
2023-01-15T20:42:50.735Z,0.53
2023-01-15T20:45:18.212Z,0.63
2023-01-15T20:48:04.537Z,0.60
2023-01-15T20:50:34.604Z,1.33
2023-01-15T20:53:02.705Z,0.70
2023-01-15T20:55:55.535Z,0.60
2023-01-15T20:58:24.906Z,1.17
2023-01-15T21:00:53.464Z,0.60
2023-01-15T21:03:20.844Z,0.63
2023-01-15T21:05:48.390Z,0.60
2023-01-15T21:08:15.741Z,0.50
2023-01-15T21:10:43.002Z,0.50
2023-01-15T21:13:10.315Z,0.70
2023-01-15T21:15:37.592Z,0.43
2023-01-15T21:18:04.838Z,0.50
2023-01-15T21:20:31.987Z,0.40
2023-01-15T21:22:59.175Z,0.50
2023-01-15T21:25:26.495Z,0.70
2023-01-15T21:27:53.683Z,0.40
2023-01-15T21:30:21.112Z,0.73
2023-01-15T21:32:48.822Z,0.60
2023-01-15T21:35:16.384Z,0.50
2023-01-15T21:37:43.612Z,0.40
2023-01-15T21:40:11.454Z,0.50
2023-01-15T21:42:57.023Z,0.60
2023-01-15T21:45:24.368Z,0.60
2023-01-15T21:47:51.701Z,0.50
2023-01-15T21:50:20.400Z,0.40
2023-01-15T21:52:52.053Z,0.50
2023-01-15T21:55:19.335Z,0.50
2023-01-15T21:57:49.081Z,0.60
2023-01-15T22:00:17.892Z,0.60
2023-01-15T22:02:45.176Z,0.40
2023-01-15T22:05:12.387Z,0.50
2023-01-15T22:07:39.642Z,0.60
2023-01-15T22:10:07.613Z,1.47
2023-01-15T22:12:39.474Z,0.50
2023-01-15T22:15:07.206Z,1.37
2023-01-15T22:17:34.393Z,0.97
2023-01-15T22:20:01.649Z,0.80
2023-01-15T22:22:33.829Z,0.73
2023-01-15T22:25:01.200Z,0.50
2023-01-15T22:27:30.460Z,0.50
2023-01-15T22:29:57.672Z,0.87
2023-01-15T22:32:24.849Z,0.40
2023-01-15T22:34:52.288Z,0.40
2023-01-15T22:37:19.448Z,1.37
2023-01-15T22:39:47.199Z,0.40
2023-01-15T22:42:31.272Z,0.40
2023-01-15T22:45:00.595Z,0.40
2023-01-15T22:47:29.307Z,0.40
2023-01-15T22:49:57.038Z,0.50
2023-01-15T22:52:25.887Z,0.40
2023-01-15T22:54:53.744Z,0.47
2023-01-15T22:57:21.161Z,0.47
2023-01-15T22:59:50.371Z,0.40
2023-01-15T23:02:18.048Z,0.60
2023-01-15T23:04:45.413Z,0.50
2023-01-15T23:07:12.646Z,0.50
2023-01-15T23:09:39.842Z,0.80
2023-01-15T23:12:07.343Z,0.50
2023-01-15T23:14:34.534Z,0.50
2023-01-15T23:17:01.772Z,0.53
2023-01-15T23:19:28.954Z,0.50
2023-01-15T23:21:56.118Z,0.40
2023-01-15T23:24:23.340Z,0.50
2023-01-15T23:26:50.800Z,0.50
2023-01-15T23:29:18.043Z,0.63
2023-01-15T23:31:45.239Z,0.50
2023-01-15T23:34:13.665Z,0.53
2023-01-15T23:36:40.873Z,0.40
2023-01-15T23:39:08.324Z,0.40
2023-01-15T23:41:54.114Z,0.50
2023-01-15T23:44:40.130Z,0.40
2023-01-15T23:47:08.272Z,0.40
2023-01-15T23:49:35.600Z,0.40
2023-01-15T23:52:03.571Z,0.40
2023-01-15T23:54:31.776Z,0.30
2023-01-15T23:57:00.530Z,0.40
2023-01-15T23:59:28.150Z,0.40
